Terminal Aerodrome Forecast
Issued by NWS La Crosse, WI

Home | Current Version | Previous Version | Text Only | Print | Product List | Glossary On
Versions: 1 2 3 4 5 6 7 8 9 10 11 12 13 14 15 16 17 18 19 20 21 22 23 24 25 26 27 28 29 30 31 32 33 34 35 36 37
000
FTUS43 KARX 272330
TAFRST
TAF
KRST 272330Z 2800/2824 17005KT P6SM SCT120
     FM280400 17008KT P6SM OVC050
     FM280700 16012KT 3SM -SN OVC020
     FM281100 16014KT P6SM OVC020
     FM281800 17008KT P6SM OVC020=

USA.gov is the U.S. government's official web portal to all federal, state and local government web resources and services.